Time;durP1;ratioP1;P1;durP2;ratioP2;P2;SDS_P1;SDS_P2;PMS_P1;PMS_P2;Temp;Humidity;BMP_temperature;BMP_pressure;BME280_temperature;BME280_humidity;BME280_pressure;Samples;Min_cycle;Max_cycle;Signal;HPM_P1;HPM_P2
2021/04/24 00:01:31;;;;;;;18.07;8.60;;;4.70;99.90;;;;;;4222065;28;20268;-59
2021/04/24 00:03:32;;;;;;;18.00;8.47;;;4.70;99.90;;;;;;4222627;28;20272;-60
2021/04/24 00:05:38;;;;;;;20.73;7.80;;;4.70;99.90;;;;;;4222322;28;20252;-58
2021/04/24 00:07:39;;;;;;;14.43;8.07;;;4.70;99.90;;;;;;4222459;28;20260;-60
2021/04/24 00:09:40;;;;;;;16.40;7.40;;;4.70;99.90;;;;;;4222162;28;20766;-60
2021/04/24 00:11:42;;;;;;;15.50;7.13;;;4.70;99.90;;;;;;4222352;28;20324;-60
2021/04/24 00:13:43;;;;;;;14.63;7.07;;;4.80;99.90;;;;;;4230949;27;20279;-63
2021/04/24 00:15:44;;;;;;;16.67;7.40;;;4.80;99.90;;;;;;4239247;27;20282;-55
2021/04/24 00:17:46;;;;;;;18.50;7.83;;;4.70;99.90;;;;;;4238173;27;20280;-60
2021/04/24 00:19:47;;;;;;;15.33;7.07;;;4.70;99.90;;;;;;4239304;27;20316;-60
2021/04/24 00:21:48;;;;;;;21.63;8.33;;;4.70;99.90;;;;;;4237983;27;20280;-58
2021/04/24 00:23:49;;;;;;;12.80;7.03;;;4.80;99.90;;;;;;4238648;27;20759;-60
2021/04/24 00:25:51;;;;;;;13.47;7.77;;;4.80;99.90;;;;;;4239381;27;20274;-60
2021/04/24 00:27:52;;;;;;;13.67;6.93;;;4.70;99.90;;;;;;4238940;28;20283;-60
2021/04/24 00:29:53;;;;;;;15.87;7.10;;;4.70;99.90;;;;;;4240114;27;20268;-61
2021/04/24 00:31:54;;;;;;;11.83;6.87;;;4.70;99.90;;;;;;4238727;28;20920;-60
2021/04/24 00:33:56;;;;;;;13.50;7.17;;;4.70;99.90;;;;;;4239168;27;20264;-60
2021/04/24 00:35:58;;;;;;;12.70;6.73;;;4.70;99.90;;;;;;4237098;28;20287;-59
2021/04/24 00:38:00;;;;;;;11.03;6.93;;;4.70;99.90;;;;;;4239416;28;20275;-59
2021/04/24 00:40:01;;;;;;;14.23;7.07;;;4.70;99.90;;;;;;4238871;27;20263;-56
2021/04/24 00:42:02;;;;;;;14.80;6.93;;;4.70;99.90;;;;;;4239138;27;20336;-60
2021/04/24 00:44:04;;;;;;;16.67;6.80;;;4.70;99.90;;;;;;4239772;28;20312;-60
2021/04/24 00:46:13;;;;;;;15.03;8.10;;;4.70;99.90;;;;;;4239116;27;20316;-60
2021/04/24 00:48:15;;;;;;;12.90;6.23;;;4.70;99.90;;;;;;4225712;28;20880;-61
2021/04/24 00:50:20;;;;;;;15.17;7.63;;;4.70;99.90;;;;;;4221697;28;20292;-68
2021/04/24 00:52:21;;;;;;;15.13;6.87;;;4.80;99.90;;;;;;4222372;28;20785;-60
2021/04/24 00:54:22;;;;;;;11.53;6.97;;;4.70;99.90;;;;;;4221789;28;20749;-62
2021/04/24 00:56:24;;;;;;;14.30;7.90;;;4.70;99.90;;;;;;4222010;28;20284;-61
2021/04/24 00:58:26;;;;;;;15.83;7.60;;;4.70;99.90;;;;;;4222499;28;20260;-70
2021/04/24 01:00:27;;;;;;;15.77;7.27;;;4.70;99.90;;;;;;4221870;28;20344;-60
2021/04/24 01:02:28;;;;;;;16.57;7.23;;;4.60;99.90;;;;;;4221155;28;20833;-64
2021/04/24 01:04:30;;;;;;;14.37;7.00;;;4.60;99.90;;;;;;4222459;28;20317;-67
2021/04/24 01:06:32;;;;;;;11.87;6.30;;;4.60;99.90;;;;;;4221456;28;20260;-65
2021/04/24 01:08:33;;;;;;;14.60;5.80;;;4.60;99.90;;;;;;4222720;28;20268;-60
2021/04/24 01:10:37;;;;;;;9.87;5.47;;;4.60;99.90;;;;;;4221529;28;20275;-62
2021/04/24 01:12:38;;;;;;;8.80;5.00;;;4.70;99.90;;;;;;4223815;28;20268;-61
2021/04/24 01:14:39;;;;;;;12.43;5.00;;;4.70;99.90;;;;;;4238729;28;20259;-59
2021/04/24 01:16:44;;;;;;;9.43;5.37;;;4.70;99.90;;;;;;4238797;27;20783;-63
2021/04/24 01:18:45;;;;;;;13.50;6.23;;;4.70;99.90;;;;;;4238854;28;20336;-59
2021/04/24 01:20:47;;;;;;;8.73;5.57;;;4.70;99.90;;;;;;4238698;27;20268;-60
2021/04/24 01:22:50;;;;;;;11.60;5.97;;;4.70;99.90;;;;;;4222033;28;20315;-60
2021/04/24 01:24:51;;;;;;;10.40;6.37;;;4.70;99.90;;;;;;4222563;28;20268;-60
2021/04/24 01:26:54;;;;;;;11.00;6.33;;;4.70;99.90;;;;;;4224635;28;20272;-55
2021/04/24 01:28:56;;;;;;;14.83;7.77;;;4.60;99.90;;;;;;4225015;28;20332;-63
2021/04/24 01:30:57;;;;;;;14.33;7.37;;;4.60;99.90;;;;;;4225148;28;20280;-59
2021/04/24 01:32:59;;;;;;;17.33;7.40;;;4.50;99.90;;;;;;4224252;28;20329;-60
2021/04/24 01:35:00;;;;;;;12.10;6.00;;;4.40;99.90;;;;;;4224629;27;20272;-59
2021/04/24 01:37:02;;;;;;;13.90;6.53;;;4.40;99.90;;;;;;4224204;28;20351;-61
2021/04/24 01:39:05;;;;;;;11.97;5.77;;;4.40;99.90;;;;;;4225211;28;20341;-60
2021/04/24 01:41:06;;;;;;;13.50;5.93;;;4.40;99.90;;;;;;4224468;28;20260;-60
2021/04/24 01:43:08;;;;;;;9.57;5.70;;;4.40;99.90;;;;;;4224643;28;21023;-60
2021/04/24 01:45:14;;;;;;;8.53;5.43;;;4.30;99.90;;;;;;4224677;28;20325;-60
2021/04/24 01:47:15;;;;;;;11.27;5.67;;;4.30;99.90;;;;;;4224640;28;20280;-59
2021/04/24 01:49:17;;;;;;;12.00;6.20;;;4.30;99.90;;;;;;4224490;28;20276;-60
2021/04/24 01:51:18;;;;;;;12.00;5.60;;;4.30;99.90;;;;;;4222613;28;20366;-59
2021/04/24 01:53:22;;;;;;;10.50;5.83;;;4.20;99.90;;;;;;4224636;28;20276;-62
2021/04/24 01:55:27;;;;;;;13.83;5.77;;;4.20;99.90;;;;;;4228121;27;21155;-60
2021/04/24 01:57:28;;;;;;;11.00;5.90;;;4.20;99.90;;;;;;4241657;27;20332;-54
2021/04/24 01:59:32;;;;;;;13.50;5.63;;;4.20;99.90;;;;;;4241616;27;20271;-61
2021/04/24 02:01:33;;;;;;;16.20;6.33;;;4.10;99.90;;;;;;4240586;27;20340;-59
2021/04/24 02:03:35;;;;;;;13.03;7.17;;;4.10;99.90;;;;;;4241173;27;20276;-60
2021/04/24 02:05:37;;;;;;;17.07;7.83;;;4.10;99.90;;;;;;4241409;27;20344;-57
2021/04/24 02:07:38;;;;;;;14.17;7.70;;;4.00;99.90;;;;;;4228236;27;20779;-64
2021/04/24 02:09:39;;;;;;;14.97;7.60;;;4.00;99.90;;;;;;4224405;28;20256;-61
2021/04/24 02:12:08;;;;;;;12.93;6.07;;;3.90;99.90;;;;;;4223283;28;20284;-61
2021/04/24 02:14:09;;;;;;;10.57;6.40;;;3.90;99.90;;;;;;4224386;28;20268;-68
2021/04/24 02:16:12;;;;;;;10.27;5.90;;;3.80;99.90;;;;;;4223748;28;20284;-60
2021/04/24 02:18:14;;;;;;;14.97;6.47;;;3.90;99.90;;;;;;4224450;28;20329;-65
2021/04/24 02:20:17;;;;;;;12.37;5.40;;;3.80;99.90;;;;;;4223822;28;21108;-60
2021/04/24 02:22:20;;;;;;;11.23;6.23;;;3.80;99.90;;;;;;4224416;28;20305;-62
2021/04/24 02:24:21;;;;;;;14.40;5.83;;;3.90;99.90;;;;;;4221376;28;20268;-59
2021/04/24 02:26:23;;;;;;;10.57;5.70;;;3.80;99.90;;;;;;4223896;28;20305;-57
2021/04/24 02:28:25;;;;;;;10.53;4.70;;;3.90;99.90;;;;;;4224295;28;20268;-64
2021/04/24 02:30:27;;;;;;;9.23;5.73;;;3.90;99.90;;;;;;4235513;27;20280;-65
2021/04/24 02:32:31;;;;;;;10.63;5.73;;;3.90;99.90;;;;;;4240286;27;20308;-59
2021/04/24 02:34:33;;;;;;;10.97;6.13;;;3.90;99.90;;;;;;4240814;27;20304;-66
2021/04/24 02:36:34;;;;;;;11.17;5.00;;;3.80;99.90;;;;;;4238134;27;20867;-56
2021/04/24 02:38:35;;;;;;;13.10;5.60;;;3.80;99.90;;;;;;4240614;27;20309;-64
2021/04/24 02:40:36;;;;;;;20.73;6.80;;;3.80;99.90;;;;;;4240438;27;20320;-61
2021/04/24 02:42:37;;;;;;;12.40;6.20;;;3.70;99.90;;;;;;4240771;27;21155;-65
2021/04/24 02:44:40;;;;;;;12.27;6.60;;;3.60;99.90;;;;;;4240822;27;20300;-61
2021/04/24 02:46:41;;;;;;;13.53;6.30;;;3.60;99.90;;;;;;4240239;27;20260;-60
2021/04/24 02:48:42;;;;;;;10.47;5.60;;;3.50;99.90;;;;;;4241189;27;20726;-60
2021/04/24 02:50:44;;;;;;;13.77;6.63;;;3.40;99.90;;;;;;4233509;27;20292;-59
2021/04/24 02:52:46;;;;;;;14.97;6.33;;;3.40;99.90;;;;;;4224170;28;20317;-60
2021/04/24 02:54:47;;;;;;;12.10;6.90;;;3.40;99.90;;;;;;4233185;27;20263;-59
2021/04/24 02:56:49;;;;;;;11.47;6.20;;;3.40;99.90;;;;;;4240338;27;20705;-60
2021/04/24 02:58:50;;;;;;;16.40;6.00;;;3.30;99.90;;;;;;4240387;27;20255;-58
2021/04/24 03:00:51;;;;;;;11.77;5.57;;;3.30;99.90;;;;;;4239243;27;21371;-60
2021/04/24 03:03:10;;;;;;;13.07;6.80;;;3.20;99.90;;;;;;4240377;27;20340;-60
2021/04/24 03:05:14;;;;;;;15.77;7.07;;;3.20;99.90;;;;;;4223713;28;20825;-61
2021/04/24 03:07:15;;;;;;;9.83;5.73;;;3.10;99.90;;;;;;4223257;28;20336;-56
2021/04/24 03:09:17;;;;;;;10.87;6.30;;;3.10;99.90;;;;;;4223460;28;20256;-69
2021/04/24 03:11:18;;;;;;;19.63;7.63;;;3.00;99.90;;;;;;4222929;28;20698;-61
2021/04/24 03:13:19;;;;;;;18.67;6.83;;;3.10;99.90;;;;;;4223172;28;20276;-66
2021/04/24 03:15:20;;;;;;;13.17;6.27;;;3.00;99.90;;;;;;4223080;28;20305;-61
2021/04/24 03:17:22;;;;;;;16.27;7.63;;;3.00;99.90;;;;;;4222607;28;20291;-60
2021/04/24 03:19:23;;;;;;;11.90;5.97;;;2.90;99.90;;;;;;4223321;28;20268;-61
2021/04/24 03:21:25;;;;;;;14.83;6.27;;;2.90;99.90;;;;;;4222766;28;20264;-60
2021/04/24 03:23:26;;;;;;;11.23;6.90;;;2.90;99.90;;;;;;4221672;28;20706;-60
2021/04/24 03:25:27;;;;;;;13.03;6.40;;;2.90;99.90;;;;;;4222575;28;20279;-57
2021/04/24 03:27:28;;;;;;;14.97;8.43;;;2.90;99.90;;;;;;4223765;28;20264;-61
2021/04/24 03:29:29;;;;;;;16.47;6.53;;;2.90;99.90;;;;;;4222637;28;20301;-61
2021/04/24 03:31:31;;;;;;;15.63;6.60;;;2.90;99.90;;;;;;4223076;28;20325;-60
2021/04/24 03:33:32;;;;;;;16.57;6.33;;;2.90;99.90;;;;;;4222066;28;20280;-64
2021/04/24 03:35:33;;;;;;;13.63;6.37;;;2.90;99.90;;;;;;4223159;28;20272;-60
2021/04/24 03:37:35;;;;;;;15.60;7.03;;;2.90;99.90;;;;;;4226472;27;20291;-65
2021/04/24 03:39:36;;;;;;;14.77;6.50;;;3.00;99.90;;;;;;4238097;27;21136;-65
2021/04/24 03:41:37;;;;;;;10.53;5.80;;;3.00;99.90;;;;;;4222619;28;20264;-63
2021/04/24 03:43:38;;;;;;;11.07;5.67;;;3.20;99.90;;;;;;4222607;28;20260;-60
2021/04/24 03:45:39;;;;;;;11.40;5.73;;;3.40;99.90;;;;;;4222303;28;20737;-57
2021/04/24 03:47:40;;;;;;;13.20;6.33;;;3.70;99.90;;;;;;4222428;28;20268;-58
2021/04/24 03:49:42;;;;;;;14.73;6.40;;;4.00;99.90;;;;;;4222707;28;20267;-59
2021/04/24 03:51:44;;;;;;;15.63;6.63;;;4.30;99.90;;;;;;4222695;28;20309;-64
2021/04/24 03:53:45;;;;;;;13.03;6.00;;;4.70;99.90;;;;;;4236214;27;20304;-60
2021/04/24 03:55:46;;;;;;;14.27;5.87;;;4.90;99.90;;;;;;4239071;27;20252;-59
2021/04/24 03:57:48;;;;;;;16.43;7.70;;;5.00;99.90;;;;;;4223793;27;20764;-57
2021/04/24 03:59:49;;;;;;;17.27;7.30;;;5.20;99.90;;;;;;4221689;28;20296;-62
2021/04/24 04:01:50;;;;;;;11.80;7.40;;;5.40;99.90;;;;;;4222683;28;20280;-61
2021/04/24 04:03:51;;;;;;;13.90;6.80;;;5.50;99.90;;;;;;4221652;28;20272;-58
2021/04/24 04:05:53;;;;;;;17.80;7.27;;;5.70;99.90;;;;;;4222858;28;20272;-69
2021/04/24 04:07:55;;;;;;;14.37;7.10;;;6.00;99.90;;;;;;4222022;28;20764;-60
2021/04/24 04:09:56;;;;;;;19.03;7.63;;;6.50;99.90;;;;;;4222147;28;20333;-73
2021/04/24 04:11:57;;;;;;;15.30;6.57;;;7.00;99.90;;;;;;4222497;28;20334;-72
2021/04/24 04:13:58;;;;;;;13.13;7.43;;;7.50;99.90;;;;;;4220438;28;20309;-66
2021/04/24 04:15:59;;;;;;;16.90;6.77;;;7.90;99.90;;;;;;4220585;28;20317;-70
2021/04/24 04:18:00;;;;;;;13.60;6.57;;;8.30;99.90;;;;;;4221561;28;20300;-60
2021/04/24 04:20:03;;;;;;;13.63;6.77;;;8.70;99.90;;;;;;4222422;28;20658;-60
2021/04/24 04:22:04;;;;;;;15.90;6.50;;;9.20;99.80;;;;;;4222350;28;20024;-61
2021/04/24 04:24:06;;;;;;;11.80;6.80;;;9.40;98.50;;;;;;4222285;28;20031;-61
2021/04/24 04:26:07;;;;;;;13.93;6.63;;;9.60;97.30;;;;;;4222053;28;20552;-60
2021/04/24 04:28:09;;;;;;;13.67;7.40;;;9.90;95.90;;;;;;4239165;28;20064;-67
2021/04/24 04:30:13;;;;;;;15.03;6.17;;;10.00;94.80;;;;;;4231092;28;20556;-61
2021/04/24 04:32:14;;;;;;;16.20;6.60;;;9.80;93.60;;;;;;4222661;28;20085;-64
2021/04/24 04:34:15;;;;;;;14.43;6.67;;;9.90;93.90;;;;;;4221244;28;20096;-66
2021/04/24 04:36:16;;;;;;;10.33;5.73;;;10.00;93.80;;;;;;4222476;28;20069;-69
2021/04/24 04:38:17;;;;;;;11.80;6.27;;;10.10;93.10;;;;;;4221512;28;20040;-73
2021/04/24 04:40:19;;;;;;;11.60;5.87;;;10.30;91.80;;;;;;4222002;28;20047;-66
2021/04/24 04:42:20;;;;;;;10.47;6.10;;;10.20;90.80;;;;;;4221351;28;20093;-68
2021/04/24 04:44:22;;;;;;;12.00;5.90;;;10.50;91.00;;;;;;4221887;28;20136;-61
2021/04/24 04:46:23;;;;;;;17.00;6.53;;;10.40;90.40;;;;;;4225441;28;20039;-63
2021/04/24 04:48:24;;;;;;;11.93;6.13;;;10.90;90.30;;;;;;4237744;28;20035;-60
2021/04/24 04:50:31;;;;;;;12.07;4.73;;;11.40;88.70;;;;;;4238720;28;20051;-64
2021/04/24 04:52:32;;;;;;;10.17;4.97;;;12.00;84.80;;;;;;4238690;28;20081;-61
2021/04/24 04:54:33;;;;;;;9.83;4.60;;;12.60;82.70;;;;;;4238874;28;20061;-60
2021/04/24 04:56:34;;;;;;;10.97;4.43;;;12.80;79.80;;;;;;4238801;27;20043;-61
2021/04/24 04:58:35;;;;;;;14.10;5.33;;;13.30;78.50;;;;;;4239635;28;20087;-61
2021/04/24 05:00:37;;;;;;;11.10;4.80;;;13.70;76.20;;;;;;4240929;27;20019;-62
2021/04/24 05:02:39;;;;;;;11.40;4.00;;;14.10;73.70;;;;;;4241249;27;20547;-66
2021/04/24 05:04:40;;;;;;;11.23;3.67;;;14.20;71.50;;;;;;4230189;27;20544;-61
2021/04/24 05:06:42;;;;;;;10.67;4.13;;;14.30;71.30;;;;;;4225292;28;20031;-61
2021/04/24 05:08:44;;;;;;;8.23;4.00;;;14.40;68.60;;;;;;4224588;28;20024;-62
2021/04/24 05:10:45;;;;;;;11.60;4.10;;;14.30;68.00;;;;;;4224832;28;20016;-59
2021/04/24 05:12:47;;;;;;;8.57;4.63;;;14.40;67.50;;;;;;4223235;28;20147;-61
2021/04/24 05:14:48;;;;;;;6.93;4.20;;;14.40;67.00;;;;;;4224399;28;20461;-61
2021/04/24 05:16:49;;;;;;;13.97;3.97;;;14.00;66.30;;;;;;4224571;28;20080;-68
2021/04/24 05:18:50;;;;;;;14.77;4.23;;;14.20;66.80;;;;;;4224967;28;20051;-61
2021/04/24 05:20:52;;;;;;;12.97;4.17;;;14.50;65.50;;;;;;4224574;28;20040;-61
2021/04/24 05:22:53;;;;;;;7.30;3.83;;;14.70;64.90;;;;;;4230920;27;20422;-60
2021/04/24 05:24:57;;;;;;;9.00;4.00;;;14.90;63.70;;;;;;4241899;27;20035;-64
2021/04/24 05:26:58;;;;;;;12.10;4.40;;;15.30;62.80;;;;;;4241011;27;20027;-63
2021/04/24 05:29:00;;;;;;;11.50;3.80;;;15.30;62.10;;;;;;4242105;27;20096;-63
2021/04/24 05:31:01;;;;;;;12.93;4.33;;;15.10;61.70;;;;;;4241604;27;20047;-64
2021/04/24 05:33:03;;;;;;;12.00;4.37;;;14.70;61.30;;;;;;4241840;27;20421;-64
2021/04/24 05:35:05;;;;;;;9.17;4.17;;;14.30;61.80;;;;;;4241305;27;20444;-64
2021/04/24 05:37:07;;;;;;;12.17;4.73;;;14.20;62.00;;;;;;4241471;27;20100;-64
2021/04/24 05:39:09;;;;;;;15.13;5.10;;;14.00;62.10;;;;;;4240651;27;20035;-60
2021/04/24 05:41:12;;;;;;;8.37;3.90;;;14.10;62.40;;;;;;4241287;27;20027;-60
2021/04/24 05:43:13;;;;;;;9.27;3.90;;;14.10;62.30;;;;;;4240739;27;20076;-60
2021/04/24 05:45:14;;;;;;;5.87;3.43;;;13.80;61.20;;;;;;4241666;27;20035;-61
2021/04/24 05:47:15;;;;;;;10.67;4.63;;;13.40;62.00;;;;;;4241028;27;20043;-64
2021/04/24 05:49:17;;;;;;;12.00;4.10;;;13.60;62.80;;;;;;4241453;27;20034;-62
2021/04/24 05:51:19;;;;;;;13.53;4.50;;;14.50;61.80;;;;;;4240328;27;20434;-61
2021/04/24 05:53:21;;;;;;;11.13;4.17;;;15.40;59.80;;;;;;4241410;27;20092;-61
2021/04/24 05:55:22;;;;;;;13.60;4.33;;;15.50;58.80;;;;;;4241237;27;20035;-65
2021/04/24 05:57:23;;;;;;;9.80;4.17;;;15.20;58.60;;;;;;4240102;27;20046;-63
2021/04/24 05:59:24;;;;;;;10.53;4.10;;;14.70;59.40;;;;;;4239884;27;20085;-65
2021/04/24 06:01:25;;;;;;;10.63;4.40;;;14.80;59.90;;;;;;4241245;27;20035;-61
2021/04/24 06:03:27;;;;;;;9.90;5.00;;;15.00;59.40;;;;;;4241188;27;20444;-67
2021/04/24 06:05:28;;;;;;;9.27;5.10;;;15.30;59.20;;;;;;4240575;27;20092;-62
2021/04/24 06:07:29;;;;;;;8.33;3.63;;;15.40;58.70;;;;;;4241148;27;20060;-64
2021/04/24 06:09:30;;;;;;;13.60;5.97;;;15.60;58.80;;;;;;4239963;27;20155;-60
2021/04/24 06:11:31;;;;;;;9.43;4.27;;;16.00;58.10;;;;;;4240933;27;20080;-61
2021/04/24 06:13:32;;;;;;;7.40;4.67;;;16.20;58.00;;;;;;4240584;27;20078;-65
2021/04/24 06:15:34;;;;;;;8.27;4.53;;;16.50;57.60;;;;;;4240881;27;20770;-59
2021/04/24 06:17:35;;;;;;;9.53;4.43;;;16.50;57.20;;;;;;4240350;27;20073;-65
2021/04/24 06:19:36;;;;;;;7.63;4.70;;;16.40;57.20;;;;;;4236772;27;20128;-61
2021/04/24 06:21:37;;;;;;;7.73;4.33;;;16.20;57.20;;;;;;4223628;28;20104;-62
2021/04/24 06:23:38;;;;;;;9.13;5.00;;;16.40;57.40;;;;;;4223603;28;20368;-62
2021/04/24 06:25:40;;;;;;;14.07;5.67;;;17.00;56.60;;;;;;4223564;28;20088;-70
2021/04/24 06:27:41;;;;;;;10.60;5.30;;;17.40;56.10;;;;;;4225610;27;20100;-58
2021/04/24 06:29:43;;;;;;;8.63;4.70;;;17.80;55.20;;;;;;4240556;27;20031;-68
2021/04/24 06:31:44;;;;;;;6.43;4.15;;;18.00;54.90;;;;;;4240452;27;20080;-61
2021/04/24 06:33:45;;;;;;;8.02;4.25;;;18.00;54.60;;;;;;4240880;27;20092;-62
2021/04/24 06:35:46;;;;;;;10.23;4.97;;;17.50;54.30;;;;;;4239650;27;20031;-68
2021/04/24 06:37:47;;;;;;;7.23;4.20;;;17.50;54.90;;;;;;4240098;27;20046;-61
2021/04/24 06:39:49;;;;;;;7.13;5.00;;;17.50;54.70;;;;;;4239661;27;20027;-60
2021/04/24 06:41:50;;;;;;;7.40;4.38;;;17.50;55.30;;;;;;4239204;27;20539;-72
2021/04/24 06:43:51;;;;;;;6.00;4.30;;;17.40;54.90;;;;;;4239512;27;20043;-66
2021/04/24 06:45:53;;;;;;;8.27;4.00;;;17.60;54.70;;;;;;4240198;27;20439;-62
2021/04/24 06:47:54;;;;;;;6.35;3.17;;;17.80;54.40;;;;;;4239528;27;20031;-60
2021/04/24 06:49:55;;;;;;;4.65;2.42;;;17.70;53.40;;;;;;4239939;27;20540;-68
2021/04/24 06:51:56;;;;;;;5.97;2.80;;;17.60;53.00;;;;;;4240401;27;20031;-68
2021/04/24 06:53:59;;;;;;;6.70;3.15;;;17.60;52.20;;;;;;4233900;27;20039;-70
2021/04/24 06:56:00;;;;;;;5.40;3.28;;;17.50;52.30;;;;;;4222808;28;20521;-61
2021/04/24 06:58:02;;;;;;;8.15;3.95;;;17.10;52.90;;;;;;4223286;28;20048;-65
2021/04/24 07:00:05;;;;;;;17.38;7.45;;;16.30;53.40;;;;;;4222918;28;20104;-60
2021/04/24 07:02:08;;;;;;;20.25;10.40;;;16.30;54.30;;;;;;4222960;28;20032;-60
2021/04/24 07:04:09;;;;;;;10.10;4.70;;;16.10;54.50;;;;;;4234622;27;20035;-62
2021/04/24 07:06:10;;;;;;;9.38;4.97;;;16.00;54.80;;;;;;4240048;27;20072;-67
2021/04/24 07:08:11;;;;;;;20.40;9.93;;;16.00;55.90;;;;;;4240189;27;20491;-63
2021/04/24 07:10:13;;;;;;;69.75;29.52;;;16.30;55.40;;;;;;4239099;27;20019;-61
2021/04/24 07:12:14;;;;;;;151.70;65.30;;;16.10;55.80;;;;;;4239847;27;20463;-61
2021/04/24 07:14:15;;;;;;;13.03;5.20;;;16.30;58.20;;;;;;4238635;27;20027;-65
2021/04/24 07:16:16;;;;;;;13.97;4.03;;;16.70;57.60;;;;;;4240005;27;20433;-62
2021/04/24 07:18:18;;;;;;;7.32;3.15;;;17.20;56.80;;;;;;4229915;27;20658;-78
2021/04/24 07:20:20;;;;;;;7.83;4.13;;;17.40;54.50;;;;;;4222985;28;20027;-69
2021/04/24 07:22:21;;;;;;;10.25;3.00;;;17.30;55.00;;;;;;4221939;28;20044;-61
2021/04/24 07:24:22;;;;;;;7.05;3.85;;;17.40;54.80;;;;;;4224486;27;20028;-68
2021/04/24 07:26:24;;;;;;;10.52;3.85;;;17.20;53.70;;;;;;4222602;28;21003;-61
2021/04/24 07:28:25;;;;;;;5.57;3.33;;;16.90;53.50;;;;;;4223114;28;20032;-71
2021/04/24 07:30:27;;;;;;;5.60;2.90;;;16.40;52.10;;;;;;4229678;27;20482;-61
2021/04/24 07:32:28;;;;;;;7.28;3.28;;;15.40;51.80;;;;;;4238985;27;20031;-61
2021/04/24 07:34:29;;;;;;;6.60;2.60;;;15.30;53.50;;;;;;4240002;27;20031;-61
2021/04/24 07:36:30;;;;;;;6.15;2.70;;;15.30;53.90;;;;;;4238956;27;20700;-62
2021/04/24 07:38:32;;;;;;;6.00;3.63;;;14.80;53.50;;;;;;4238858;27;20436;-62
2021/04/24 07:40:33;;;;;;;9.40;2.97;;;14.60;53.60;;;;;;4238498;27;20035;-61
2021/04/24 07:42:34;;;;;;;5.83;3.47;;;14.60;53.80;;;;;;4239116;27;20123;-56
2021/04/24 07:44:38;;;;;;;9.87;3.60;;;14.40;52.80;;;;;;4238809;27;20035;-63
2021/04/24 07:46:39;;;;;;;18.60;3.60;;;13.90;53.80;;;;;;4239127;27;20031;-61
2021/04/24 07:48:40;;;;;;;7.83;3.93;;;13.80;54.30;;;;;;4238375;27;20015;-61
2021/04/24 07:50:42;;;;;;;7.93;3.97;;;13.70;54.80;;;;;;4238727;27;20520;-69
2021/04/24 07:52:43;;;;;;;5.67;3.60;;;13.70;54.70;;;;;;4238136;27;20027;-62
2021/04/24 07:54:44;;;;;;;10.07;3.90;;;13.90;56.20;;;;;;4238782;27;20023;-62
2021/04/24 07:56:45;;;;;;;7.50;3.67;;;14.30;57.10;;;;;;4238332;27;20563;-63
2021/04/24 07:58:46;;;;;;;4.10;2.80;;;14.70;55.40;;;;;;4239614;27;20100;-60
2021/04/24 08:00:47;;;;;;;6.00;2.97;;;14.90;54.80;;;;;;4239396;27;20179;-61
2021/04/24 08:02:49;;;;;;;7.33;3.17;;;15.10;55.40;;;;;;4238747;27;20019;-63
2021/04/24 08:04:50;;;;;;;5.20;3.13;;;15.20;54.20;;;;;;4239322;27;20027;-62
2021/04/24 08:06:51;;;;;;;7.57;3.50;;;14.60;52.60;;;;;;4239336;27;20707;-72
2021/04/24 08:08:52;;;;;;;10.47;3.90;;;14.40;52.90;;;;;;4224814;27;20032;-61
2021/04/24 08:10:53;;;;;;;6.13;4.27;;;14.30;52.90;;;;;;4221586;28;20080;-63
2021/04/24 08:12:57;;;;;;;9.57;3.40;;;14.10;53.70;;;;;;4222389;28;20031;-64
2021/04/24 08:14:59;;;;;;;9.33;3.40;;;14.50;53.80;;;;;;4223691;27;20091;-64
2021/04/24 08:17:00;;;;;;;6.87;3.33;;;14.60;53.60;;;;;;4239231;27;20507;-62
2021/04/24 08:19:02;;;;;;;5.73;2.90;;;14.70;53.30;;;;;;4237743;27;20039;-64
2021/04/24 08:21:03;;;;;;;7.67;3.97;;;14.90;53.60;;;;;;4219985;28;20043;-72
2021/04/24 08:23:04;;;;;;;7.77;3.43;;;14.90;53.00;;;;;;4237769;27;20099;-68
2021/04/24 08:25:07;;;;;;;10.77;4.00;;;14.60;52.80;;;;;;4238472;27;20087;-70
2021/04/24 08:27:09;;;;;;;6.57;3.10;;;14.60;53.20;;;;;;4238143;28;20031;-70
2021/04/24 08:29:10;;;;;;;10.07;2.97;;;14.60;53.60;;;;;;4238968;28;20023;-69
2021/04/24 08:31:11;;;;;;;9.80;3.60;;;14.80;53.40;;;;;;4238482;28;20084;-71
2021/04/24 08:33:12;;;;;;;9.67;3.40;;;14.80;52.90;;;;;;4238010;28;20027;-65
2021/04/24 08:35:14;;;;;;;6.90;3.53;;;14.50;52.60;;;;;;4239981;27;20019;-62
2021/04/24 08:37:15;;;;;;;6.07;3.40;;;14.20;52.60;;;;;;4241330;27;20035;-71
2021/04/24 08:39:16;;;;;;;6.50;2.90;;;13.90;53.10;;;;;;4241654;27;20495;-71
2021/04/24 08:41:18;;;;;;;7.00;3.50;;;13.90;53.20;;;;;;4241333;27;20043;-65
2021/04/24 08:43:19;;;;;;;5.77;3.67;;;13.70;53.60;;;;;;4241933;27;20033;-64
2021/04/24 08:45:23;;;;;;;5.73;3.50;;;13.60;53.80;;;;;;4240942;27;20039;-66
2021/04/24 08:47:26;;;;;;;6.90;3.27;;;13.40;53.20;;;;;;4242148;27;20039;-64
2021/04/24 08:49:28;;;;;;;6.63;3.07;;;12.90;53.70;;;;;;4240403;27;20558;-60
2021/04/24 08:51:29;;;;;;;7.07;3.43;;;12.70;54.10;;;;;;4241819;27;20093;-62
2021/04/24 08:53:30;;;;;;;7.67;4.10;;;12.70;54.60;;;;;;4241399;27;20096;-58
2021/04/24 08:55:35;;;;;;;7.97;3.40;;;12.80;54.50;;;;;;4241639;27;20023;-59
2021/04/24 08:57:37;;;;;;;5.83;3.30;;;13.20;54.50;;;;;;4240187;27;20474;-62
2021/04/24 08:59:38;;;;;;;3.30;2.67;;;13.50;54.50;;;;;;4224675;28;20039;-66
2021/04/24 09:01:40;;;;;;;3.67;2.40;;;13.80;54.00;;;;;;4224593;28;20057;-66
2021/04/24 09:03:42;;;;;;;8.40;3.33;;;14.10;53.60;;;;;;4224295;28;20027;-65
2021/04/24 09:05:43;;;;;;;6.27;3.23;;;14.50;53.00;;;;;;4224557;28;20459;-70
2021/04/24 09:07:45;;;;;;;5.50;3.40;;;14.50;52.30;;;;;;4224444;28;20028;-73
2021/04/24 09:09:56;;;;;;;4.27;2.80;;;14.50;51.90;;;;;;4224463;28;20081;-70
2021/04/24 09:12:01;;;;;;;112.70;53.37;;;14.20;50.80;;;;;;4223574;28;20064;-68
2021/04/24 09:14:11;;;;;;;8.20;4.53;;;14.00;52.30;;;;;;4229912;27;20206;-73
2021/04/24 09:16:23;;;;;;;10.15;3.78;;;14.10;51.80;;;;;;4241293;27;20613;-66
2021/04/24 09:18:27;;;;;;;8.13;3.50;;;14.20;51.00;;;;;;4241496;27;20376;-66
2021/04/24 09:20:42;;;;;;;6.73;3.40;;;14.00;51.50;;;;;;4240918;27;20889;-66
2021/04/24 09:23:01;;;;;;;15.83;4.00;;;13.90;52.10;;;;;;4241785;27;20489;-71
2021/04/24 09:25:04;;;;;;;11.27;3.50;;;13.80;52.60;;;;;;4233808;27;20043;-70
2021/04/24 09:27:06;;;;;;;3.80;2.57;;;13.60;53.20;;;;;;4224266;28;20047;-74
2021/04/24 09:29:07;;;;;;;8.83;2.67;;;13.80;53.40;;;;;;4224894;27;20482;-65
2021/04/24 09:31:12;;;;;;;4.70;2.83;;;14.00;53.20;;;;;;4233451;27;20612;-72
2021/04/24 09:33:14;;;;;;;6.67;3.03;;;14.00;52.90;;;;;;4224750;27;20100;-77
2021/04/24 09:35:21;;;;;;;9.83;3.37;;;14.10;53.00;;;;;;4224821;28;20092;-61
2021/04/24 09:37:23;;;;;;;3.90;2.30;;;13.90;52.10;;;;;;4223276;28;20617;-74
2021/04/24 09:39:42;;;;;;;7.77;3.20;;;13.80;52.30;;;;;;4224274;28;20047;-72
2021/04/24 09:41:43;;;;;;;125.60;47.87;;;13.90;52.60;;;;;;4223218;28;20040;-73
2021/04/24 09:43:55;;;;;;;7.33;2.77;;;13.80;52.00;;;;;;4224708;28;20436;-71
2021/04/24 09:45:56;;;;;;;5.50;2.60;;;14.10;52.60;;;;;;4223346;28;20805;-69
2021/04/24 09:47:59;;;;;;;4.10;2.77;;;14.30;52.30;;;;;;4224335;27;20051;-62
2021/04/24 09:50:11;;;;;;;7.30;2.93;;;14.50;51.80;;;;;;4222337;28;20112;-68
2021/04/24 09:52:21;;;;;;;9.23;2.90;;;14.30;50.50;;;;;;4233930;27;21067;-75
2021/04/24 09:54:32;;;;;;;4.73;2.80;;;14.20;51.40;;;;;;4240144;27;20110;-75
2021/04/24 09:56:33;;;;;;;6.73;3.27;;;14.40;51.00;;;;;;4240893;27;20027;-74
2021/04/24 09:58:37;;;;;;;4.53;2.87;;;14.40;51.00;;;;;;4240024;27;20428;-72
2021/04/24 10:00:38;;;;;;;8.00;3.00;;;14.30;50.00;;;;;;4241142;27;20027;-71
2021/04/24 10:02:45;;;;;;;10.93;3.87;;;14.10;50.20;;;;;;4239710;27;20432;-70
2021/04/24 10:05:16;;;;;;;9.47;3.43;;;14.20;51.10;;;;;;4240868;27;20050;-73
2021/04/24 10:07:33;;;;;;;23.60;4.27;;;14.20;49.80;;;;;;4239720;27;20697;-73
2021/04/24 10:09:35;;;;;;;4.13;2.40;;;14.20;49.60;;;;;;4226579;27;20084;-74
2021/04/24 10:11:37;;;;;;;4.37;2.33;;;14.30;50.10;;;;;;4222856;28;20040;-67
2021/04/24 10:13:39;;;;;;;3.77;2.80;;;14.10;48.80;;;;;;4221658;28;20511;-72
2021/04/24 10:15:42;;;;;;;5.20;2.77;;;14.00;49.40;;;;;;4223660;28;20023;-70
2021/04/24 10:17:43;;;;;;;4.67;2.77;;;14.00;49.50;;;;;;4223854;28;20061;-71
2021/04/24 10:19:47;;;;;;;6.37;2.90;;;14.10;49.30;;;;;;4223432;28;20039;-68
2021/04/24 10:21:48;;;;;;;3.93;2.23;;;14.20;49.60;;;;;;4223225;28;20031;-75
2021/04/24 10:23:51;;;;;;;10.77;2.80;;;14.40;50.00;;;;;;4234077;27;20445;-66
2021/04/24 10:25:53;;;;;;;5.40;2.60;;;14.20;50.10;;;;;;4239040;27;20456;-75
2021/04/24 10:27:55;;;;;;;7.63;2.40;;;14.00;50.20;;;;;;4240080;27;20488;-74
2021/04/24 10:29:56;;;;;;;5.37;2.80;;;14.10;50.80;;;;;;4240726;27;20047;-70
2021/04/24 10:31:58;;;;;;;5.27;2.53;;;14.30;50.90;;;;;;4240842;27;20091;-68
2021/04/24 10:34:01;;;;;;;3.07;2.20;;;14.40;50.90;;;;;;4239971;27;20023;-67
2021/04/24 10:36:02;;;;;;;5.43;2.80;;;14.60;50.60;;;;;;4240293;27;20031;-65